Time;durP1;ratioP1;P1;durP2;ratioP2;P2;SDS_P1;SDS_P2;PMS_P1;PMS_P2;Temp;Humidity;BMP_temperature;BMP_pressure;BME280_temperature;BME280_humidity;BME280_pressure;Samples;Min_cycle;Max_cycle;Signal;HPM_P1;HPM_P2
2021/03/02 00:01:29;;;;;;;11.82;5.82;;;;;;;7.53;53.39;101237.09;3066363;29;20127;-77
2021/03/02 00:03:01;;;;;;;9.48;4.90;;;;;;;7.55;53.43;101227.22;3064290;29;20062;-77
2021/03/02 00:04:32;;;;;;;12.30;6.63;;;;;;;7.55;53.51;101235.22;3066729;29;20047;-76
2021/03/02 00:06:05;;;;;;;13.10;6.72;;;;;;;7.51;53.71;101232.84;3065017;28;20588;-78
2021/03/02 00:07:38;;;;;;;12.45;6.32;;;;;;;7.44;53.89;101245.66;3069538;29;20047;-76
2021/03/02 00:09:09;;;;;;;11.80;6.68;;;;;;;7.36;54.24;101246.13;3065402;29;20044;-76
2021/03/02 00:10:42;;;;;;;13.15;6.95;;;;;;;7.27;54.52;101236.06;3063690;29;20513;-76
2021/03/02 00:12:15;;;;;;;13.52;7.40;;;;;;;7.16;54.88;101247.34;3064603;28;20127;-76
2021/03/02 00:13:46;;;;;;;13.93;6.95;;;;;;;7.10;55.18;101240.59;3067871;29;20044;-78
2021/03/02 00:15:17;;;;;;;12.45;7.53;;;;;;;7.05;55.51;101240.00;3065491;29;20040;-76
2021/03/02 00:16:55;;;;;;;11.70;6.93;;;;;;;7.06;55.53;101241.72;3067873;29;20058;-76
2021/03/02 00:18:29;;;;;;;11.85;6.30;;;;;;;7.07;55.68;101243.44;3065489;28;20048;-76
2021/03/02 00:20:06;;;;;;;11.25;5.85;;;;;;;7.12;55.52;101248.47;3066765;29;20055;-77
2021/03/02 00:21:42;;;;;;;9.73;5.40;;;;;;;7.10;55.68;101245.06;3065884;29;20051;-77
2021/03/02 00:23:18;;;;;;;11.57;6.35;;;;;;;7.09;55.71;101248.66;3062526;29;20083;-76
2021/03/02 00:24:53;;;;;;;11.43;7.03;;;;;;;7.06;55.80;101246.19;3064517;28;20078;-76
2021/03/02 00:26:31;;;;;;;14.73;7.03;;;;;;;7.04;55.97;101254.25;3070460;29;20066;-77
2021/03/02 00:28:06;;;;;;;11.55;6.55;;;;;;;7.00;56.01;101253.59;3065500;29;20055;-76
2021/03/02 00:29:40;;;;;;;17.58;9.07;;;;;;;6.95;56.18;101247.69;3069612;29;20043;-77
2021/03/02 00:31:14;;;;;;;13.45;7.43;;;;;;;6.84;56.61;101244.81;3068042;28;20107;-77
2021/03/02 00:32:47;;;;;;;13.05;7.22;;;;;;;6.77;56.79;101240.81;3069259;28;20048;-76
2021/03/02 00:34:18;;;;;;;13.95;7.50;;;;;;;6.76;56.81;101252.41;3069709;29;20051;-77
2021/03/02 00:35:49;;;;;;;10.73;6.53;;;;;;;6.76;57.02;101257.72;3066970;28;20062;-76
2021/03/02 00:37:21;;;;;;;12.32;7.72;;;;;;;6.74;57.16;101249.84;3065948;29;20051;-77
2021/03/02 00:38:53;;;;;;;15.05;7.72;;;;;;;6.72;56.94;101255.22;3065845;28;20055;-77
2021/03/02 00:40:25;;;;;;;14.60;7.25;;;;;;;6.69;57.21;101252.78;3067262;29;20063;-77
2021/03/02 00:41:56;;;;;;;12.57;7.03;;;;;;;6.68;57.07;101256.38;3062369;28;20048;-76
2021/03/02 00:43:27;;;;;;;17.05;8.43;;;;;;;6.67;57.24;101253.78;3069858;29;20044;-77
2021/03/02 00:44:58;;;;;;;13.45;7.03;;;;;;;6.68;57.17;101256.38;3068037;28;20075;-77
2021/03/02 00:46:30;;;;;;;13.77;7.10;;;;;;;6.68;56.99;101261.69;3069774;29;20035;-76
2021/03/02 00:48:01;;;;;;;12.57;7.22;;;;;;;6.64;57.00;101257.47;3067721;28;20043;-77
2021/03/02 00:49:34;;;;;;;15.00;6.07;;;;;;;6.62;57.05;101259.38;3070711;29;20039;-77
2021/03/02 00:51:05;;;;;;;10.25;5.32;;;;;;;6.61;57.01;101263.00;3069969;28;21780;-77
2021/03/02 00:52:37;;;;;;;13.80;6.82;;;;;;;6.63;56.97;101261.09;3074915;29;20043;-77
2021/03/02 00:54:09;;;;;;;9.90;5.60;;;;;;;6.63;56.92;101261.09;3067692;28;20047;-77
2021/03/02 00:55:41;;;;;;;12.27;6.85;;;;;;;6.63;56.99;101261.09;3071912;29;20035;-77
2021/03/02 00:57:12;;;;;;;13.00;6.80;;;;;;;6.62;57.15;101251.41;3072921;28;20047;-77
2021/03/02 00:58:44;;;;;;;11.57;6.13;;;;;;;6.61;57.10;101255.03;3069628;29;20106;-76
2021/03/02 01:00:16;;;;;;;8.32;4.82;;;;;;;6.62;57.08;101259.38;3065054;29;20044;-77
2021/03/02 01:01:48;;;;;;;10.10;5.75;;;;;;;6.65;57.01;101253.03;3071767;29;20044;-77
2021/03/02 01:03:19;;;;;;;8.70;4.60;;;;;;;6.64;57.05;101259.28;3067508;28;20055;-77
2021/03/02 01:04:51;;;;;;;11.23;6.38;;;;;;;6.61;57.09;101252.38;3070873;29;20063;-77
2021/03/02 01:06:23;;;;;;;10.70;5.85;;;;;;;6.60;57.16;101258.63;3067246;28;20048;-77
2021/03/02 01:07:54;;;;;;;11.82;6.53;;;;;;;6.60;56.97;101263.94;3067988;29;20051;-76
2021/03/02 01:09:26;;;;;;;11.35;5.70;;;;;;;6.58;56.71;101254.31;3065641;29;20061;-77
2021/03/02 01:10:57;;;;;;;12.75;6.30;;;;;;;6.59;56.72;101256.03;3066658;29;20044;-77
2021/03/02 01:12:29;;;;;;;9.15;5.00;;;;;;;6.59;56.64;101251.59;3069529;29;20055;-77
2021/03/02 01:14:00;;;;;;;11.98;6.05;;;;;;;6.58;56.43;101249.88;3066547;29;20047;-76
2021/03/02 01:15:31;;;;;;;10.48;5.78;;;;;;;6.56;56.49;101251.75;3064080;28;20535;-77
2021/03/02 01:17:04;;;;;;;10.10;5.95;;;;;;;6.53;56.59;101249.28;3067568;29;20130;-77
2021/03/02 01:18:35;;;;;;;9.35;5.60;;;;;;;6.51;56.56;101253.84;3062719;28;20039;-77
2021/03/02 01:20:08;;;;;;;10.48;5.47;;;;;;;6.48;56.61;101248.69;3066253;29;20067;-77
2021/03/02 01:21:39;;;;;;;8.73;5.45;;;;;;;6.51;56.50;101249.38;3065832;28;20142;-76
2021/03/02 01:23:10;;;;;;;9.93;5.82;;;;;;;6.50;56.53;101244.16;3069193;29;20068;-77
2021/03/02 01:24:42;;;;;;;10.55;5.43;;;;;;;6.50;56.62;101242.34;3064978;29;20062;-77
2021/03/02 01:26:14;;;;;;;8.95;5.45;;;;;;;6.47;56.43;101242.50;3066875;29;20043;-77
2021/03/02 01:27:45;;;;;;;8.77;5.20;;;;;;;6.49;56.53;101245.09;3066970;28;20649;-76
2021/03/02 01:29:16;;;;;;;10.32;5.65;;;;;;;6.49;56.44;101235.31;3064889;29;20071;-77
2021/03/02 01:30:47;;;;;;;10.75;5.53;;;;;;;6.48;56.46;101232.75;3068271;29;20191;-77
2021/03/02 01:32:18;;;;;;;7.80;4.68;;;;;;;6.51;56.49;101237.91;3067267;29;20052;-77
2021/03/02 01:33:50;;;;;;;9.35;5.50;;;;;;;6.54;56.26;101243.03;3067403;28;20047;-77
2021/03/02 01:35:21;;;;;;;8.77;5.07;;;;;;;6.56;56.49;101236.66;3067872;29;20463;-76
2021/03/02 01:36:52;;;;;;;9.25;5.13;;;;;;;6.58;56.40;101239.25;3064932;28;20443;-77
2021/03/02 01:38:23;;;;;;;7.95;4.82;;;;;;;6.60;56.35;101241.81;3067467;29;20058;-77
2021/03/02 01:39:55;;;;;;;7.57;4.57;;;;;;;6.63;56.15;101231.84;3063524;28;20422;-76
2021/03/02 01:41:27;;;;;;;11.93;6.90;;;;;;;6.67;56.19;101238.72;3063541;29;20047;-76
2021/03/02 01:42:57;;;;;;;8.40;5.50;;;;;;;6.68;56.27;101235.13;3065826;29;20051;-77
2021/03/02 01:44:30;;;;;;;8.38;5.05;;;;;;;6.68;56.33;101240.44;3069048;29;20063;-77
2021/03/02 01:46:01;;;;;;;8.60;4.45;;;;;;;6.67;56.18;101238.72;3063409;29;20558;-77
2021/03/02 01:47:32;;;;;;;9.05;5.35;;;;;;;6.65;56.24;101235.28;3066152;29;20417;-77
2021/03/02 01:49:05;;;;;;;8.43;4.57;;;;;;;6.68;56.28;101236.91;3065172;28;20115;-77
2021/03/02 01:50:37;;;;;;;8.23;4.57;;;;;;;6.66;56.34;101238.81;3067551;29;20491;-76
2021/03/02 01:52:09;;;;;;;6.93;3.97;;;;;;;6.68;56.39;101240.44;3064838;28;20044;-77
2021/03/02 01:53:40;;;;;;;7.55;4.35;;;;;;;6.66;56.44;101237.00;3068737;29;20056;-77
2021/03/02 01:55:16;;;;;;;7.38;4.05;;;;;;;6.65;56.30;101237.94;3064884;28;20043;-77
2021/03/02 01:56:47;;;;;;;13.55;5.90;;;;;;;6.65;56.23;101235.28;3060430;29;20108;-77
2021/03/02 01:58:18;;;;;;;9.18;5.03;;;;;;;6.63;56.43;101234.50;3063518;29;20126;-77
2021/03/02 01:59:50;;;;;;;9.27;5.45;;;;;;;6.58;56.42;101239.25;3063367;29;20051;-77
2021/03/02 02:01:21;;;;;;;9.40;5.70;;;;;;;6.54;56.35;101235.91;3069844;29;20048;-76
2021/03/02 02:03:12;;;;;;;9.50;6.05;;;;;;;6.49;56.52;101231.81;3069398;28;20095;-76
2021/03/02 02:04:50;;;;;;;11.25;6.10;;;;;;;6.42;56.72;101230.47;3070548;29;20079;-77
2021/03/02 02:06:27;;;;;;;9.98;5.80;;;;;;;6.42;56.69;101230.47;3068033;29;20051;-76
2021/03/02 02:08:02;;;;;;;11.30;6.40;;;;;;;6.37;56.82;101231.56;3067653;29;20055;-77
2021/03/02 02:09:38;;;;;;;10.32;6.13;;;;;;;6.35;57.02;101235.28;3068727;28;20054;-76
2021/03/02 02:11:17;;;;;;;9.00;5.80;;;;;;;6.31;57.05;101234.59;3067610;29;20048;-77
2021/03/02 02:12:54;;;;;;;8.88;5.78;;;;;;;6.26;57.39;101234.00;3068260;28;20044;-77
2021/03/02 02:14:34;;;;;;;11.50;6.90;;;;;;;6.22;57.47;101235.13;3063096;29;20058;-77
2021/03/02 02:16:09;;;;;;;10.35;6.45;;;;;;;6.19;57.57;101237.94;3064841;28;20067;-76
2021/03/02 02:17:48;;;;;;;10.68;6.45;;;;;;;6.19;57.54;101235.28;3068987;29;20118;-77
2021/03/02 02:19:37;;;;;;;10.82;5.70;;;;;;;6.20;57.40;101240.50;3065158;29;20055;-76
2021/03/02 02:21:22;;;;;;;8.93;5.57;;;;;;;6.20;57.42;101239.66;3064912;29;20062;-76
2021/03/02 02:23:03;;;;;;;10.95;5.60;;;;;;;6.19;57.49;101246.75;3062669;29;20066;-76
2021/03/02 02:24:48;;;;;;;13.27;6.47;;;;;;;6.18;57.65;101238.88;3066013;29;20058;-76
2021/03/02 02:26:32;;;;;;;10.60;6.47;;;;;;;6.16;57.79;101238.97;3069897;29;20048;-76
2021/03/02 02:28:06;;;;;;;10.85;6.28;;;;;;;6.16;57.75;101235.44;3065878;28;20534;-76
2021/03/02 02:29:38;;;;;;;11.00;6.07;;;;;;;6.18;57.72;101237.09;3070678;29;20052;-77
2021/03/02 02:31:10;;;;;;;10.93;6.15;;;;;;;6.18;57.62;101238.88;3067351;28;20289;-76
2021/03/02 02:32:45;;;;;;;10.35;6.22;;;;;;;6.18;57.76;101233.56;3070939;29;20085;-77
2021/03/02 02:34:18;;;;;;;12.70;7.15;;;;;;;6.19;57.74;101243.25;3069101;29;20149;-77
2021/03/02 02:35:51;;;;;;;9.55;6.03;;;;;;;6.18;57.67;101236.22;3067784;28;20043;-76
2021/03/02 02:37:23;;;;;;;10.10;6.35;;;;;;;6.17;57.78;101232.72;3066675;29;20106;-77
2021/03/02 02:38:57;;;;;;;10.65;6.57;;;;;;;6.17;57.87;101226.56;3066034;28;20490;-76
2021/03/02 02:40:29;;;;;;;8.10;4.57;;;;;;;6.16;57.96;101233.66;3068619;29;20055;-77
2021/03/02 02:42:02;;;;;;;11.98;7.13;;;;;;;6.21;57.70;101225.44;3061937;29;20040;-76
2021/03/02 02:43:34;;;;;;;10.05;5.50;;;;;;;6.21;57.69;101222.78;3067875;29;20879;-77
2021/03/02 02:45:08;;;;;;;9.95;5.68;;;;;;;6.24;57.82;101222.59;3067624;28;20055;-77
2021/03/02 02:46:40;;;;;;;9.43;5.93;;;;;;;6.24;58.03;101233.22;3070210;29;20051;-76
2021/03/02 02:48:12;;;;;;;10.93;6.30;;;;;;;6.17;58.30;101231.84;3065670;28;20050;-76
2021/03/02 02:49:46;;;;;;;9.18;5.40;;;;;;;6.08;58.66;101236.75;3068061;29;20076;-76
2021/03/02 02:51:18;;;;;;;10.43;6.05;;;;;;;5.98;59.04;101240.00;3066912;28;20047;-76
2021/03/02 02:52:50;;;;;;;10.15;6.63;;;;;;;5.91;59.24;101240.31;3067523;29;20520;-76
2021/03/02 02:54:24;;;;;;;10.48;6.57;;;;;;;5.89;59.62;101236.03;3064614;29;20040;-76
2021/03/02 02:55:58;;;;;;;9.75;5.57;;;;;;;5.87;59.54;101241.44;3067985;29;20050;-77
2021/03/02 02:57:34;;;;;;;7.13;4.30;;;;;;;5.90;59.60;101238.59;3067671;28;20048;-77
2021/03/02 02:59:09;;;;;;;11.15;6.93;;;;;;;5.79;59.81;101241.00;3067264;29;20047;-76
2021/03/02 03:00:42;;;;;;;15.07;7.60;;;;;;;5.57;60.43;101246.63;3067989;29;20047;-77
2021/03/02 03:02:17;;;;;;;11.02;6.75;;;;;;;5.34;60.81;101246.06;3073283;28;20049;-76
2021/03/02 03:03:49;;;;;;;12.15;6.90;;;;;;;5.19;61.07;101247.72;3068590;29;20040;-77
2021/03/02 03:05:23;;;;;;;11.60;7.22;;;;;;;5.05;61.38;101243.16;3076740;29;20035;-77
2021/03/02 03:06:59;;;;;;;12.27;7.35;;;;;;;4.85;61.70;101249.50;3075300;28;20039;-77
2021/03/02 03:08:34;;;;;;;12.85;7.53;;;;;;;4.62;62.32;101253.31;3073267;29;20047;-77
2021/03/02 03:10:08;;;;;;;12.65;8.18;;;;;;;4.40;62.94;101254.34;3066986;28;20044;-77
2021/03/02 03:11:42;;;;;;;14.10;8.30;;;;;;;4.13;63.54;101254.78;3066283;29;20051;-77
2021/03/02 03:13:18;;;;;;;15.63;9.60;;;;;;;3.94;64.11;101253.94;3067430;28;20047;-77
2021/03/02 03:14:52;;;;;;;13.23;8.57;;;;;;;3.80;64.41;101259.88;3062639;28;20063;-76
2021/03/02 03:16:24;;;;;;;14.38;8.40;;;;;;;3.71;64.99;101255.84;3073663;29;20047;-77
2021/03/02 03:17:58;;;;;;;13.95;8.07;;;;;;;3.68;65.09;101261.28;3070380;28;20043;-77
2021/03/02 03:19:32;;;;;;;15.45;8.23;;;;;;;3.67;65.38;101255.13;3072619;29;20052;-76
2021/03/02 03:21:04;;;;;;;16.95;8.70;;;;;;;3.73;65.24;101254.84;3070138;29;20063;-77
2021/03/02 03:22:36;;;;;;;15.40;8.00;;;;;;;3.72;65.33;101262.84;3075279;29;20059;-77
2021/03/02 03:24:10;;;;;;;18.20;9.00;;;;;;;3.69;65.52;101257.69;3070070;28;20043;-77
2021/03/02 03:25:42;;;;;;;13.20;7.97;;;;;;;3.69;65.74;101258.56;3074222;29;20066;-77
2021/03/02 03:27:14;;;;;;;15.60;8.82;;;;;;;3.67;65.86;101260.41;3076312;28;20043;-76
2021/03/02 03:28:48;;;;;;;12.60;8.13;;;;;;;3.64;65.96;101270.28;3066549;29;20044;-77
2021/03/02 03:30:22;;;;;;;13.02;7.18;;;;;;;3.53;66.21;101262.84;3066330;28;20051;-76
2021/03/02 03:31:57;;;;;;;14.68;9.13;;;;;;;3.52;66.25;101269.91;3065516;29;20111;-77
2021/03/02 03:33:29;;;;;;;18.65;9.77;;;;;;;3.48;66.38;101264.81;3064434;28;20058;-77
2021/03/02 03:35:03;;;;;;;16.55;9.40;;;;;;;3.49;66.46;101256.84;3065755;29;20040;-76
2021/03/02 03:36:36;;;;;;;15.45;8.48;;;;;;;3.49;66.42;101261.25;3060369;29;20519;-77
2021/03/02 03:38:08;;;;;;;12.57;6.60;;;;;;;3.56;66.50;101260.03;3065071;29;20143;-77
2021/03/02 03:39:39;;;;;;;14.63;8.80;;;;;;;3.67;66.10;101260.41;3065554;28;20047;-77
2021/03/02 03:41:11;;;;;;;15.63;8.75;;;;;;;3.67;66.07;101256.94;3066965;29;20111;-76
2021/03/02 03:42:42;;;;;;;17.02;9.55;;;;;;;3.67;66.07;101262.22;3059289;28;20063;-76
2021/03/02 03:44:14;;;;;;;13.80;8.95;;;;;;;3.63;66.26;101264.16;3064915;29;20044;-76
2021/03/02 03:45:45;;;;;;;15.18;8.55;;;;;;;3.58;66.38;101264.38;3062639;28;20051;-76
2021/03/02 03:47:17;;;;;;;17.45;8.85;;;;;;;3.50;66.57;101269.13;3066427;29;20055;-76
2021/03/02 03:48:48;;;;;;;13.27;8.27;;;;;;;3.39;66.73;101269.59;3063622;29;20146;-77
2021/03/02 03:50:20;;;;;;;16.77;8.00;;;;;;;3.30;67.01;101272.66;3064690;29;20447;-77
2021/03/02 03:51:52;;;;;;;15.18;8.07;;;;;;;3.23;67.09;101284.44;3066625;28;20056;-76
2021/03/02 03:53:24;;;;;;;15.27;8.55;;;;;;;3.17;67.36;101279.41;3067517;29;20083;-76
2021/03/02 03:54:57;;;;;;;14.65;9.00;;;;;;;3.14;67.50;101287.47;3061707;28;20051;-76
2021/03/02 03:56:28;;;;;;;14.60;7.78;;;;;;;3.10;67.52;101282.31;3068326;29;20052;-76
2021/03/02 03:58:01;;;;;;;16.98;8.57;;;;;;;3.07;67.82;101292.16;3064815;28;20052;-76
2021/03/02 03:59:34;;;;;;;14.70;8.00;;;;;;;3.06;67.85;101286.03;3064351;29;20511;-76
2021/03/02 04:01:06;;;;;;;12.88;7.88;;;;;;;3.11;67.86;101288.47;3062954;28;20054;-77
2021/03/02 04:02:38;;;;;;;13.90;8.68;;;;;;;3.13;67.94;101291.88;3063193;29;20055;-76
2021/03/02 04:04:10;;;;;;;15.38;8.93;;;;;;;3.13;67.95;101291.88;3065227;29;20052;-76
2021/03/02 04:05:42;;;;;;;14.13;8.43;;;;;;;3.15;67.87;101290.03;3066554;29;20412;-76
2021/03/02 04:07:14;;;;;;;15.00;8.25;;;;;;;3.13;67.90;101297.16;3066206;28;20047;-76
2021/03/02 04:08:46;;;;;;;13.95;8.18;;;;;;;3.10;67.97;101294.69;3064632;28;20044;-76
2021/03/02 04:10:18;;;;;;;17.10;10.10;;;;;;;3.05;68.03;101294.88;3067224;29;20051;-76
2021/03/02 04:11:49;;;;;;;14.80;9.02;;;;;;;3.02;68.23;101297.66;3066355;28;20379;-76
2021/03/02 04:13:21;;;;;;;13.40;7.78;;;;;;;3.03;68.38;101298.50;3067935;29;20059;-76
2021/03/02 04:14:52;;;;;;;17.80;9.70;;;;;;;2.97;68.49;101299.63;3066630;29;20059;-76
2021/03/02 04:16:24;;;;;;;14.55;8.27;;;;;;;2.91;68.73;101300.75;3065241;29;20107;-76
2021/03/02 04:17:57;;;;;;;14.88;8.57;;;;;;;2.86;68.73;101300.06;3065902;28;20055;-76
2021/03/02 04:19:28;;;;;;;12.35;6.97;;;;;;;2.85;68.91;101303.63;3066065;29;20052;-76
2021/03/02 04:21:01;;;;;;;12.35;7.50;;;;;;;2.84;69.09;101296.63;3065620;28;20044;-76
2021/03/02 04:22:36;;;;;;;15.63;9.48;;;;;;;2.81;68.93;101299.41;3075363;29;20125;-76
2021/03/02 04:24:08;;;;;;;15.00;9.93;;;;;;;2.77;69.22;101300.44;3067357;28;20043;-76
2021/03/02 04:25:39;;;;;;;13.40;8.13;;;;;;;2.75;69.24;101304.94;3068118;29;20054;-76
2021/03/02 04:27:10;;;;;;;10.43;6.78;;;;;;;2.84;69.30;101307.19;3061338;28;20505;-76
2021/03/02 04:28:41;;;;;;;10.07;6.10;;;;;;;2.92;69.15;101299.84;3066014;29;20107;-76
2021/03/02 04:30:16;;;;;;;9.30;5.03;;;;;;;3.05;68.67;101300.16;3070253;28;20047;-76
2021/03/02 04:31:48;;;;;;;9.02;5.13;;;;;;;3.16;68.39;101302.34;3072225;29;20075;-77
2021/03/02 04:33:20;;;;;;;9.45;5.32;;;;;;;3.22;68.03;101288.84;3069904;28;20031;-76
2021/03/02 04:34:51;;;;;;;11.93;6.30;;;;;;;3.27;67.82;101299.22;3073434;29;20246;-76
2021/03/02 04:36:22;;;;;;;13.30;7.80;;;;;;;3.33;67.65;101300.75;3069882;28;20052;-76
2021/03/02 04:37:53;;;;;;;12.15;8.70;;;;;;;3.30;67.71;101299.09;3073415;29;20060;-76
2021/03/02 04:39:27;;;;;;;16.67;9.35;;;;;;;3.25;67.95;101301.09;3069229;29;20059;-75
2021/03/02 04:40:58;;;;;;;12.43;7.60;;;;;;;3.22;67.94;101302.06;3069358;29;22096;-76
2021/03/02 04:42:29;;;;;;;16.27;9.65;;;;;;;3.21;68.12;101302.13;3069637;28;20052;-77
2021/03/02 04:44:03;;;;;;;14.95;8.38;;;;;;;3.22;68.28;101302.06;3071353;29;20059;-76
2021/03/02 04:45:39;;;;;;;14.48;6.88;;;;;;;3.25;68.08;101293.16;3064171;28;20048;-75
2021/03/02 04:47:10;;;;;;;14.68;8.77;;;;;;;3.32;68.14;101296.38;3064062;29;20476;-77
2021/03/02 04:48:43;;;;;;;18.52;9.55;;;;;;;3.37;68.09;101304.97;3066307;28;20055;-77
2021/03/02 04:50:17;;;;;;;14.23;8.82;;;;;;;3.39;67.89;101292.56;3068123;29;20040;-77
2021/03/02 04:51:48;;;;;;;13.18;6.97;;;;;;;3.42;67.72;101297.69;3062989;28;20051;-77
2021/03/02 04:53:19;;;;;;;13.13;7.63;;;;;;;3.45;67.70;101302.84;3064490;29;20044;-77
2021/03/02 04:54:51;;;;;;;11.75;7.25;;;;;;;3.47;67.52;101287.78;3061622;28;20058;-77
2021/03/02 04:56:22;;;;;;;14.20;7.25;;;;;;;3.46;67.37;101299.28;3062319;29;20047;-77
2021/03/02 04:57:53;;;;;;;14.35;8.80;;;;;;;3.43;67.53;101299.41;3060040;28;20539;-77
2021/03/02 04:59:25;;;;;;;15.80;8.27;;;;;;;3.38;67.74;101296.97;3061984;29;20075;-76
2021/03/02 05:00:57;;;;;;;17.75;9.10;;;;;;;3.31;67.58;101298.16;3059697;28;20044;-77
2021/03/02 05:02:28;;;;;;;13.82;7.40;;;;;;;3.20;67.82;101303.06;3062706;29;20047;-77
2021/03/02 05:03:59;;;;;;;14.25;8.20;;;;;;;3.12;68.27;101306.03;3059815;28;20044;-77
2021/03/02 05:05:31;;;;;;;16.95;8.88;;;;;;;3.01;68.68;101309.13;3062577;29;20463;-77
2021/03/02 05:07:02;;;;;;;14.57;9.02;;;;;;;2.91;69.22;101307.81;3061114;29;20525;-77
2021/03/02 05:08:33;;;;;;;13.18;7.85;;;;;;;2.82;69.56;101309.06;3063599;29;20051;-77
2021/03/02 05:10:06;;;;;;;14.30;8.10;;;;;;;2.76;69.79;101309.28;3060078;29;20086;-77
2021/03/02 05:11:37;;;;;;;16.80;7.97;;;;;;;2.72;69.98;101313.00;3061996;29;20076;-77
2021/03/02 05:13:08;;;;;;;15.77;8.75;;;;;;;2.65;70.05;101309.75;3062583;28;21287;-77
2021/03/02 05:14:40;;;;;;;15.48;8.70;;;;;;;2.60;69.76;101309.94;3063767;29;20110;-77
2021/03/02 05:16:13;;;;;;;20.85;9.05;;;;;;;2.56;70.36;101310.97;3057544;28;20055;-77
2021/03/02 05:17:44;;;;;;;17.25;8.93;;;;;;;2.52;70.31;101317.31;3062786;29;20079;-77
2021/03/02 05:19:15;;;;;;;19.48;9.23;;;;;;;2.49;70.62;101312.16;3064282;29;20052;-78
2021/03/02 05:20:46;;;;;;;14.95;8.68;;;;;;;2.47;70.70;101311.34;3060843;29;20051;-77
2021/03/02 05:22:18;;;;;;;13.50;8.00;;;;;;;2.46;70.56;101313.13;3062504;29;20051;-77
2021/03/02 05:23:49;;;;;;;16.67;8.40;;;;;;;2.43;70.68;101315.88;3065003;29;20051;-78
2021/03/02 05:25:20;;;;;;;14.88;8.63;;;;;;;2.41;70.62;101320.38;3060740;29;20056;-77
2021/03/02 05:26:51;;;;;;;16.48;8.85;;;;;;;2.37;70.54;101317.91;3062219;28;20071;-77
2021/03/02 05:28:23;;;;;;;21.55;9.68;;;;;;;2.34;70.72;101318.91;3059140;29;20051;-77
2021/03/02 05:29:54;;;;;;;14.07;8.80;;;;;;;2.29;71.04;101319.06;3060894;29;20059;-76
2021/03/02 05:31:26;;;;;;;17.23;9.93;;;;;;;2.29;71.20;101319.06;3065921;29;20043;-77
2021/03/02 05:32:57;;;;;;;16.05;9.70;;;;;;;2.29;71.29;101329.63;3058260;28;20469;-77
2021/03/02 05:34:28;;;;;;;15.65;8.82;;;;;;;2.30;71.37;101328.72;3065122;29;20059;-77
2021/03/02 05:36:00;;;;;;;15.45;8.60;;;;;;;2.28;71.16;101324.41;3059706;29;20095;-77
2021/03/02 05:37:31;;;;;;;15.10;9.00;;;;;;;2.26;71.21;101326.25;3056378;29;20044;-77
2021/03/02 05:39:03;;;;;;;14.75;8.93;;;;;;;2.35;71.26;101325.91;3063203;29;20083;-77
2021/03/02 05:40:34;;;;;;;14.65;9.35;;;;;;;2.45;70.96;101319.34;3063456;29;20602;-77
2021/03/02 05:42:07;;;;;;;12.73;7.22;;;;;;;2.49;70.75;101322.69;3058153;29;20122;-77
2021/03/02 05:43:40;;;;;;;12.88;7.20;;;;;;;2.53;70.61;101324.31;3063571;29;20051;-77
2021/03/02 05:45:12;;;;;;;10.07;6.15;;;;;;;2.61;70.34;101326.63;3063095;29;20055;-77
2021/03/02 05:46:45;;;;;;;11.02;5.80;;;;;;;2.70;70.02;101323.59;3061647;29;20602;-77
2021/03/02 05:48:17;;;;;;;10.82;5.60;;;;;;;2.79;69.67;101327.66;3065593;29;20079;-77
2021/03/02 05:49:49;;;;;;;13.73;8.68;;;;;;;2.79;69.40;101323.22;3062288;29;20048;-78
2021/03/02 05:51:20;;;;;;;14.68;8.52;;;;;;;2.73;69.63;101330.56;3064570;28;20051;-77
2021/03/02 05:52:52;;;;;;;17.77;8.90;;;;;;;2.64;69.66;101327.38;3070200;29;20052;-77
2021/03/02 05:54:23;;;;;;;13.88;7.55;;;;;;;2.60;70.00;101324.91;3071969;29;20048;-78
2021/03/02 05:55:55;;;;;;;15.40;9.43;;;;;;;2.56;70.09;101324.16;3068811;29;20054;-78
2021/03/02 05:57:27;;;;;;;12.63;7.80;;;;;;;2.51;70.16;101331.44;3066192;28;20055;-77
2021/03/02 05:58:59;;;;;;;14.07;8.57;;;;;;;2.48;70.06;101328.91;3059462;29;20054;-78
2021/03/02 06:00:31;;;;;;;14.10;7.97;;;;;;;2.47;70.29;101329.81;3063847;29;20039;-78
2021/03/02 06:02:03;;;;;;;14.07;7.40;;;;;;;2.49;70.25;101330.63;3064447;29;20078;-77
2021/03/02 06:03:36;;;;;;;13.55;8.02;;;;;;;2.53;69.99;101332.22;3061510;29;20098;-78
2021/03/02 06:05:07;;;;;;;10.15;5.75;;;;;;;2.57;70.06;101325.91;3062994;29;20059;-78
2021/03/02 06:06:39;;;;;;;13.57;6.45;;;;;;;2.67;69.98;101325.53;3062921;29;20052;-77
2021/03/02 06:08:10;;;;;;;13.95;6.95;;;;;;;2.69;69.61;101329.84;3068352;29;20051;-77
2021/03/02 06:09:41;;;;;;;12.60;7.40;;;;;;;2.68;69.65;101322.84;3061768;28;20574;-78
2021/03/02 06:11:27;;;;;;;9.10;5.07;;;;;;;2.75;69.44;101328.69;3068100;29;20047;-77
2021/03/02 06:13:00;;;;;;;10.38;6.28;;;;;;;2.84;69.28;101330.97;3062226;28;20059;-77
2021/03/02 06:14:34;;;;;;;9.05;5.18;;;;;;;2.90;69.04;101333.38;3068224;29;20044;-77
2021/03/02 06:16:05;;;;;;;12.82;6.95;;;;;;;2.95;68.98;101328.75;3060662;28;20043;-77
2021/03/02 06:17:37;;;;;;;11.63;7.07;;;;;;;2.99;68.77;101325.97;3065951;29;20050;-77
2021/03/02 06:19:09;;;;;;;10.30;5.72;;;;;;;3.03;68.78;101327.56;3064008;28;20052;-77
2021/03/02 06:20:41;;;;;;;13.27;7.65;;;;;;;3.04;68.71;101332.78;3062828;29;20063;-77
2021/03/02 06:22:35;;;;;;;12.32;7.57;;;;;;;3.02;68.40;101328.50;3061501;29;20071;-77
2021/03/02 06:24:08;;;;;;;15.05;7.13;;;;;;;3.02;68.65;101336.44;3060766;29;20043;-77
2021/03/02 06:25:40;;;;;;;16.80;8.48;;;;;;;2.95;68.69;101327.91;3065865;29;20055;-77
2021/03/02 06:27:13;;;;;;;13.60;8.07;;;;;;;2.87;68.98;101338.78;3062785;28;20051;-77
2021/03/02 06:28:45;;;;;;;17.02;8.65;;;;;;;2.77;69.15;101334.78;3059080;29;20058;-77
2021/03/02 06:30:17;;;;;;;13.50;8.50;;;;;;;2.69;69.70;101347.44;3064051;28;20098;-77
2021/03/02 06:31:48;;;;;;;16.15;9.55;;;;;;;2.58;70.16;101348.75;3065006;29;20142;-77
2021/03/02 06:33:21;;;;;;;14.68;7.72;;;;;;;2.50;70.74;101349.03;3062923;29;20055;-77
2021/03/02 06:34:52;;;;;;;16.08;8.65;;;;;;;2.51;70.97;101357.84;3064781;29;20075;-77
2021/03/02 06:36:23;;;;;;;15.20;7.93;;;;;;;2.48;71.12;101352.66;3062831;28;20052;-76
2021/03/02 06:37:55;;;;;;;18.10;8.77;;;;;;;2.42;71.36;101355.56;3064776;29;20043;-76
2021/03/02 06:39:29;;;;;;;15.38;9.18;;;;;;;2.36;71.82;101361.94;3061621;29;20044;-77
2021/03/02 06:41:01;;;;;;;18.98;9.63;;;;;;;2.33;72.03;101357.63;3060679;29;20048;-77
2021/03/02 06:42:37;;;;;;;15.70;8.95;;;;;;;2.36;72.25;101358.44;3058376;29;20059;-77
2021/03/02 06:44:12;;;;;;;16.10;9.75;;;;;;;2.37;72.40;101357.50;3064795;29;20048;-76
2021/03/02 06:45:50;;;;;;;20.23;9.55;;;;;;;2.36;71.98;101359.28;3061769;28;20060;-77
2021/03/02 06:47:32;;;;;;;14.63;9.52;;;;;;;2.33;72.50;101357.63;3064264;29;20210;-76
2021/03/02 06:49:03;;;;;;;17.13;9.10;;;;;;;2.32;72.38;101357.69;3062015;28;20051;-76
2021/03/02 06:50:39;;;;;;;16.02;9.73;;;;;;;2.31;72.36;101359.47;3062463;29;20067;-76
2021/03/02 06:52:17;;;;;;;14.02;8.32;;;;;;;2.33;72.31;101362.91;3063424;29;20071;-77
2021/03/02 06:54:01;;;;;;;21.33;10.43;;;;;;;2.36;72.18;101364.56;3063015;29;20063;-77
2021/03/02 06:55:33;;;;;;;21.00;9.80;;;;;;;2.41;72.12;101367.03;3062992;29;20055;-77
2021/03/02 06:57:05;;;;;;;13.45;8.15;;;;;;;2.44;71.99;101367.75;3059059;28;20056;-77
2021/03/02 06:58:36;;;;;;;16.45;9.13;;;;;;;2.47;71.80;101362.38;3064189;29;20047;-77
2021/03/02 07:00:10;;;;;;;18.02;10.15;;;;;;;2.49;71.81;101370.22;3061883;29;20047;-78
2021/03/02 07:01:44;;;;;;;16.05;9.10;;;;;;;2.47;71.88;101369.41;3065472;29;20284;-77
2021/03/02 07:03:30;;;;;;;16.98;9.45;;;;;;;2.47;71.77;101361.50;3062443;28;20055;-77
2021/03/02 07:05:09;;;;;;;12.50;7.28;;;;;;;2.50;71.68;101367.50;3064601;29;20079;-76
2021/03/02 07:06:43;;;;;;;16.35;10.60;;;;;;;2.54;71.75;101378.84;3057827;28;20044;-77
2021/03/02 07:08:13;;;;;;;17.05;8.77;;;;;;;2.63;71.55;101377.59;3062614;29;20047;-77
2021/03/02 07:09:45;;;;;;;13.10;7.70;;;;;;;2.72;71.18;101379.03;3065628;28;20050;-77
2021/03/02 07:11:17;;;;;;;25.55;9.75;;;;;;;2.78;70.92;101377.00;3063459;29;20051;-77
2021/03/02 07:12:51;;;;;;;17.77;8.95;;;;;;;2.81;71.02;101381.28;3057374;28;20052;-76
2021/03/02 07:14:24;;;;;;;16.52;8.80;;;;;;;2.85;70.96;101377.59;3067033;29;20055;-76